createdAt,value
2023-04-12T00:01:46.880Z,25.64
2023-04-12T00:04:16.185Z,25.64
2023-04-12T00:06:48.650Z,25.64
2023-04-12T00:09:17.029Z,25.60
2023-04-12T00:11:44.900Z,25.64
2023-04-12T00:14:12.992Z,25.62
2023-04-12T00:16:41.662Z,25.64
2023-04-12T00:19:09.716Z,25.64
2023-04-12T00:21:37.674Z,25.65
2023-04-12T00:24:07.602Z,25.66
2023-04-12T00:26:35.757Z,25.66
2023-04-12T00:29:03.796Z,25.68
2023-04-12T00:31:32.148Z,25.72
2023-04-12T00:34:02.485Z,25.75
2023-04-12T00:36:30.712Z,25.80
2023-04-12T00:38:58.694Z,25.83
2023-04-12T00:41:28.885Z,25.83
2023-04-12T00:43:57.303Z,25.86
2023-04-12T00:46:25.708Z,25.89
2023-04-12T00:48:53.850Z,25.91
2023-04-12T00:51:22.524Z,25.93
2023-04-12T00:53:50.673Z,25.95
2023-04-12T00:56:19.832Z,25.96
2023-04-12T00:58:49.275Z,25.97
2023-04-12T01:01:19.438Z,25.93
2023-04-12T01:03:47.912Z,26.00
2023-04-12T01:06:27.082Z,25.97
2023-04-12T01:09:01.804Z,26.02
2023-04-12T01:11:33.974Z,26.03
2023-04-12T01:14:10.927Z,26.04
2023-04-12T01:16:44.437Z,25.95
2023-04-12T01:19:34.209Z,26.05
2023-04-12T01:22:13.395Z,26.05
2023-04-12T01:24:52.964Z,26.06
2023-04-12T01:27:35.701Z,26.06
2023-04-12T01:30:08.037Z,26.07
2023-04-12T01:32:38.279Z,26.09
2023-04-12T01:35:09.798Z,26.10
2023-04-12T01:37:38.004Z,26.08
2023-04-12T01:40:07.872Z,26.09
2023-04-12T01:42:37.324Z,26.06
2023-04-12T01:45:05.976Z,26.12
2023-04-12T01:47:34.684Z,26.08
2023-04-12T01:50:15.394Z,26.11
2023-04-12T01:52:49.423Z,25.97
2023-04-12T01:55:20.355Z,25.87
2023-04-12T01:57:51.411Z,26.08
2023-04-12T02:00:21.058Z,26.06
2023-04-12T02:02:49.437Z,26.05
2023-04-12T02:05:18.996Z,26.05
2023-04-12T02:07:49.854Z,26.04
2023-04-12T02:10:29.307Z,25.88
2023-04-12T02:13:01.414Z,26.00
2023-04-12T02:15:30.097Z,25.97
2023-04-12T02:17:59.354Z,25.94
2023-04-12T02:20:28.129Z,25.93
2023-04-12T02:22:56.121Z,25.78
2023-04-12T02:25:24.232Z,25.91
2023-04-12T02:27:52.264Z,25.87
2023-04-12T02:30:22.794Z,25.89
2023-04-12T02:32:54.045Z,25.86
2023-04-12T02:35:27.230Z,25.87
2023-04-12T02:38:00.818Z,25.89
2023-04-12T02:40:30.948Z,25.87
2023-04-12T02:42:59.772Z,25.89
2023-04-12T02:45:29.716Z,25.92
2023-04-12T02:47:58.627Z,25.95
2023-04-12T02:50:30.299Z,25.99
2023-04-12T02:53:06.356Z,26.02
2023-04-12T02:55:34.585Z,26.04
2023-04-12T02:58:04.931Z,26.08
2023-04-12T03:00:35.150Z,26.11
2023-04-12T03:03:04.120Z,26.09
2023-04-12T03:05:33.542Z,26.13
2023-04-12T03:08:01.804Z,26.12
2023-04-12T03:10:40.722Z,26.16
2023-04-12T03:13:08.762Z,26.18
2023-04-12T03:15:40.783Z,26.20
2023-04-12T03:18:08.915Z,26.13
2023-04-12T03:20:47.508Z,26.22
2023-04-12T03:23:16.663Z,26.24
2023-04-12T03:25:47.692Z,26.24
2023-04-12T03:28:36.156Z,26.23
2023-04-12T03:31:08.703Z,26.25
2023-04-12T03:33:47.475Z,26.24
2023-04-12T03:36:24.764Z,26.25
2023-04-12T03:38:58.473Z,26.26
2023-04-12T03:41:27.284Z,26.28
2023-04-12T03:43:56.116Z,26.28
2023-04-12T03:46:25.847Z,26.30
2023-04-12T03:48:58.109Z,26.30
2023-04-12T03:51:30.804Z,26.30
2023-04-12T03:54:04.446Z,26.32
2023-04-12T03:56:43.146Z,26.34
2023-04-12T03:59:20.306Z,26.33
2023-04-12T04:01:51.946Z,26.33
2023-04-12T04:04:21.150Z,26.31
2023-04-12T04:06:51.426Z,26.31
2023-04-12T04:09:20.092Z,26.29
2023-04-12T04:11:50.026Z,26.28
2023-04-12T04:14:19.438Z,26.25
2023-04-12T04:16:47.574Z,26.25
2023-04-12T04:19:17.560Z,26.23
2023-04-12T04:21:50.073Z,26.22
2023-04-12T04:24:18.911Z,26.21
2023-04-12T04:26:50.399Z,26.21
2023-04-12T04:29:28.693Z,26.19
2023-04-12T04:31:57.956Z,26.20
2023-04-12T04:34:28.278Z,26.20
2023-04-12T04:37:04.896Z,26.19
2023-04-12T04:39:33.061Z,26.18
2023-04-12T04:42:01.472Z,26.19
2023-04-12T04:44:40.572Z,26.17
2023-04-12T04:47:11.777Z,26.13
2023-04-12T04:49:41.311Z,26.18
2023-04-12T04:52:22.363Z,26.18
2023-04-12T04:54:51.454Z,26.17
2023-04-12T04:57:21.096Z,26.19
2023-04-12T04:59:49.713Z,26.21
2023-04-12T05:02:19.138Z,26.22
2023-04-12T05:04:48.627Z,26.31
2023-04-12T05:07:19.918Z,26.38
2023-04-12T05:09:49.658Z,26.41
2023-04-12T05:12:20.136Z,26.45
2023-04-12T05:14:52.369Z,26.47
2023-04-12T05:17:20.980Z,26.50
2023-04-12T05:19:50.453Z,26.54
2023-04-12T05:22:20.550Z,26.57
2023-04-12T05:24:48.673Z,26.58
2023-04-12T05:27:17.111Z,26.62
2023-04-12T05:29:47.176Z,26.65
2023-04-12T05:32:17.191Z,26.70
2023-04-12T05:34:45.140Z,26.74
2023-04-12T05:37:14.376Z,26.63
2023-04-12T05:39:43.578Z,26.82
2023-04-12T05:42:11.625Z,26.87
2023-04-12T05:44:40.633Z,26.90
2023-04-12T05:47:13.216Z,26.91
2023-04-12T05:49:41.365Z,26.86
2023-04-12T05:52:11.064Z,26.98
2023-04-12T05:54:41.753Z,27.00
2023-04-12T05:57:13.956Z,27.00
2023-04-12T05:59:42.161Z,27.02
2023-04-12T06:02:12.102Z,27.03
2023-04-12T06:04:50.007Z,27.04
2023-04-12T06:07:20.019Z,27.06
2023-04-12T06:09:49.976Z,27.08
2023-04-12T06:12:18.933Z,27.09
2023-04-12T06:14:47.661Z,27.08
2023-04-12T06:17:15.871Z,27.12
2023-04-12T06:19:44.897Z,27.14
2023-04-12T06:22:12.870Z,27.14
2023-04-12T06:24:42.281Z,27.11
2023-04-12T06:27:13.537Z,27.22
2023-04-12T06:29:41.737Z,27.29
2023-04-12T06:32:10.042Z,27.35
2023-04-12T06:34:38.143Z,27.31
2023-04-12T06:37:12.210Z,27.49
2023-04-12T06:39:40.323Z,27.54
2023-04-12T06:42:08.352Z,27.58
2023-04-12T06:44:43.096Z,27.61
2023-04-12T06:47:11.437Z,27.64
2023-04-12T06:49:39.588Z,27.66
2023-04-12T06:52:07.500Z,27.65
2023-04-12T06:54:37.621Z,27.72
2023-04-12T06:57:09.511Z,27.68
2023-04-12T06:59:37.583Z,27.68
2023-04-12T07:02:07.820Z,27.79
2023-04-12T07:04:36.139Z,27.82
2023-04-12T07:07:04.317Z,27.86
2023-04-12T07:09:33.326Z,27.81
2023-04-12T07:12:02.323Z,27.92
2023-04-12T07:14:30.703Z,27.95
2023-04-12T07:16:58.947Z,27.98
2023-04-12T07:19:29.722Z,27.98
2023-04-12T07:21:57.918Z,28.07
2023-04-12T07:24:26.188Z,28.12
2023-04-12T07:26:54.738Z,27.79
2023-04-12T07:29:22.755Z,28.16
2023-04-12T07:31:50.775Z,28.22
2023-04-12T07:34:19.006Z,28.23
2023-04-12T07:36:48.490Z,28.25
2023-04-12T07:39:16.571Z,28.27
2023-04-12T07:41:46.496Z,28.10
2023-04-12T07:44:14.459Z,28.29
2023-04-12T07:46:43.084Z,28.30
2023-04-12T07:49:11.419Z,28.28
2023-04-12T07:51:39.362Z,28.30
2023-04-12T07:54:08.770Z,27.81
2023-04-12T07:56:37.230Z,28.31
2023-04-12T07:59:05.238Z,28.25
2023-04-12T08:01:33.275Z,28.29
2023-04-12T08:04:02.364Z,28.30
2023-04-12T08:06:33.717Z,28.30
2023-04-12T08:09:02.353Z,28.31
2023-04-12T08:11:32.208Z,28.31
2023-04-12T08:14:00.260Z,28.29
2023-04-12T08:16:28.378Z,28.31
2023-04-12T08:18:56.478Z,28.31
2023-04-12T08:21:24.599Z,28.32
2023-04-12T08:23:52.558Z,28.32
2023-04-12T08:26:21.258Z,28.33
2023-04-12T08:28:50.669Z,28.33
2023-04-12T08:31:18.792Z,28.34
2023-04-12T08:33:46.916Z,28.35
2023-04-12T08:36:15.457Z,28.34
2023-04-12T08:38:45.960Z,28.19
2023-04-12T08:41:15.237Z,28.33
2023-04-12T08:43:46.170Z,28.36
2023-04-12T08:46:17.648Z,28.37
2023-04-12T08:48:47.484Z,28.37
2023-04-12T08:51:17.281Z,28.38
2023-04-12T08:53:45.595Z,28.38
2023-04-12T08:56:14.743Z,28.40
2023-04-12T08:58:46.675Z,28.42
2023-04-12T09:01:17.360Z,28.41
2023-04-12T09:03:47.066Z,28.39
2023-04-12T09:06:15.736Z,28.38
2023-04-12T09:08:54.446Z,28.39
2023-04-12T09:11:24.538Z,28.37
2023-04-12T09:13:52.880Z,28.36
2023-04-12T09:16:38.298Z,27.17
2023-04-12T09:19:06.900Z,28.17
2023-04-12T09:21:35.849Z,28.37
2023-04-12T09:24:10.775Z,28.35
2023-04-12T09:26:41.217Z,28.35
2023-04-12T09:29:24.331Z,28.34
2023-04-12T09:32:02.631Z,28.13
2023-04-12T09:34:31.127Z,28.31
2023-04-12T09:36:59.555Z,28.31
2023-04-12T09:39:33.251Z,28.30
2023-04-12T09:42:18.093Z,28.29
2023-04-12T09:44:54.358Z,28.26
2023-04-12T09:47:24.964Z,28.16
2023-04-12T09:49:53.039Z,28.24
2023-04-12T09:52:21.165Z,28.22
2023-04-12T09:54:49.650Z,28.20
2023-04-12T09:57:20.916Z,28.20
2023-04-12T09:59:51.204Z,28.18
2023-04-12T10:02:20.738Z,27.95
2023-04-12T10:04:51.029Z,28.17
2023-04-12T10:07:19.813Z,28.17
2023-04-12T10:09:48.295Z,28.14
2023-04-12T10:12:17.157Z,28.08
2023-04-12T10:14:45.929Z,28.13
2023-04-12T10:17:14.629Z,28.05
2023-04-12T10:19:42.699Z,28.05
2023-04-12T10:22:12.091Z,28.02
2023-04-12T10:24:40.321Z,27.86
2023-04-12T10:27:08.351Z,27.73
2023-04-12T10:29:38.156Z,28.01
2023-04-12T10:32:21.146Z,28.01
2023-04-12T10:34:53.208Z,27.99
2023-04-12T10:37:22.674Z,27.98
2023-04-12T10:39:54.511Z,27.97
2023-04-12T10:42:27.174Z,27.97
2023-04-12T10:44:58.687Z,27.94
2023-04-12T10:48:03.874Z,27.93
2023-04-12T10:50:33.904Z,27.88
2023-04-12T10:53:27.072Z,27.85
2023-04-12T10:55:55.600Z,27.77
2023-04-12T10:59:00.249Z,27.80
2023-04-12T11:01:34.123Z,27.76
2023-04-12T11:04:08.173Z,27.75
2023-04-12T11:06:52.742Z,27.71
2023-04-12T11:09:43.783Z,27.65
2023-04-12T11:12:21.090Z,27.60
2023-04-12T11:14:51.276Z,27.58
2023-04-12T11:17:26.148Z,27.52
2023-04-12T11:19:59.717Z,27.48
2023-04-12T11:22:30.663Z,27.45
2023-04-12T11:25:01.909Z,27.41
2023-04-12T11:27:31.832Z,27.37
2023-04-12T11:30:01.315Z,27.36
2023-04-12T11:32:30.699Z,27.35
2023-04-12T11:34:59.861Z,27.35
2023-04-12T11:37:32.169Z,27.31
2023-04-12T11:40:02.120Z,27.32
2023-04-12T11:42:30.511Z,27.29
2023-04-12T11:45:04.037Z,27.27
2023-04-12T11:47:43.714Z,27.26
2023-04-12T11:50:12.168Z,27.22
2023-04-12T11:52:41.354Z,27.18
2023-04-12T11:55:11.870Z,27.17
2023-04-12T11:57:40.442Z,27.09
2023-04-12T12:00:10.021Z,27.12
2023-04-12T12:02:49.335Z,27.04
2023-04-12T12:05:24.944Z,27.08
2023-04-12T12:07:54.155Z,27.02
2023-04-12T12:10:41.636Z,27.03
2023-04-12T12:13:12.549Z,26.99
2023-04-12T12:15:40.986Z,26.97
2023-04-12T12:18:10.158Z,26.94
2023-04-12T12:20:43.229Z,26.93
2023-04-12T12:23:11.351Z,26.90
2023-04-12T12:25:47.088Z,26.85
2023-04-12T12:28:15.147Z,26.83
2023-04-12T12:30:43.183Z,26.85
2023-04-12T12:33:11.220Z,26.82
2023-04-12T12:35:39.295Z,26.81
2023-04-12T12:38:08.633Z,26.78
2023-04-12T12:40:36.878Z,26.77
2023-04-12T12:43:07.058Z,26.75
2023-04-12T12:45:36.379Z,26.74
2023-04-12T12:48:05.822Z,26.66
2023-04-12T12:50:35.472Z,26.32
2023-04-12T12:53:06.027Z,26.69
2023-04-12T12:55:34.287Z,26.67
2023-04-12T12:58:08.197Z,26.64
2023-04-12T13:00:38.132Z,26.62
2023-04-12T13:03:06.339Z,26.56
2023-04-12T13:05:34.600Z,26.60
2023-04-12T13:08:02.811Z,26.59
2023-04-12T13:10:30.999Z,26.57
2023-04-12T13:13:01.573Z,26.55
2023-04-12T13:15:29.676Z,26.56
2023-04-12T13:17:59.124Z,26.55
2023-04-12T13:20:27.785Z,26.48
2023-04-12T13:22:55.914Z,26.52
2023-04-12T13:25:24.532Z,26.49
2023-04-12T13:27:53.084Z,26.50
2023-04-12T13:30:21.130Z,26.49
2023-04-12T13:32:49.119Z,26.48
2023-04-12T13:35:19.282Z,26.47
2023-04-12T13:37:47.337Z,26.45
2023-04-12T13:40:15.808Z,26.43
2023-04-12T13:42:43.780Z,26.42
2023-04-12T13:45:12.559Z,26.36
2023-04-12T13:47:40.970Z,26.38
2023-04-12T13:50:09.981Z,26.35
2023-04-12T13:52:39.311Z,26.27
2023-04-12T13:55:09.242Z,26.32
2023-04-12T13:57:37.273Z,26.31
2023-04-12T14:00:06.225Z,26.29
2023-04-12T14:02:34.339Z,26.29
2023-04-12T14:05:02.628Z,26.28
2023-04-12T14:07:30.782Z,26.26
2023-04-12T14:10:00.061Z,26.27
2023-04-12T14:12:28.014Z,26.26
2023-04-12T14:14:56.079Z,26.25
2023-04-12T14:17:24.160Z,26.24
2023-04-12T14:19:52.545Z,26.21
2023-04-12T14:22:20.773Z,26.21
2023-04-12T14:24:48.786Z,26.19
2023-04-12T14:27:18.362Z,26.18
2023-04-12T14:29:46.590Z,26.15
2023-04-12T14:32:14.845Z,26.09
2023-04-12T14:34:43.596Z,26.13
2023-04-12T14:37:11.913Z,26.10
2023-04-12T14:39:39.917Z,26.10
2023-04-12T14:42:07.902Z,26.08
2023-04-12T14:44:37.370Z,26.07
2023-04-12T14:47:05.254Z,26.05
2023-04-12T14:49:33.658Z,26.01
2023-04-12T14:52:02.564Z,26.00
2023-04-12T14:54:30.600Z,25.99
2023-04-12T14:56:58.560Z,25.98
2023-04-12T14:59:27.396Z,25.96
2023-04-12T15:01:58.650Z,25.95
2023-04-12T15:04:26.825Z,25.93
2023-04-12T15:06:54.850Z,25.92
2023-04-12T15:09:23.300Z,25.91
2023-04-12T15:11:54.975Z,25.90
2023-04-12T15:14:24.287Z,25.72
2023-04-12T15:16:52.280Z,25.87
2023-04-12T15:19:23.471Z,25.88
2023-04-12T15:21:52.349Z,25.87
2023-04-12T15:24:20.864Z,25.88
2023-04-12T15:26:50.791Z,25.89
2023-04-12T15:29:21.153Z,25.89
2023-04-12T15:31:49.384Z,25.92
2023-04-12T15:34:17.473Z,25.91
2023-04-12T15:36:47.116Z,25.92
2023-04-12T15:39:15.941Z,25.89
2023-04-12T15:41:43.912Z,25.88
2023-04-12T15:44:13.359Z,25.86
2023-04-12T15:46:42.515Z,25.86
2023-04-12T15:49:11.938Z,25.61
2023-04-12T15:51:40.264Z,25.84
2023-04-12T15:54:09.599Z,25.84
2023-04-12T15:56:38.616Z,25.80
2023-04-12T15:59:09.114Z,25.82
2023-04-12T16:01:38.020Z,25.81
2023-04-12T16:04:06.970Z,25.81
2023-04-12T16:06:38.088Z,25.79
2023-04-12T16:09:06.773Z,25.79
2023-04-12T16:11:36.142Z,25.79
2023-04-12T16:14:04.227Z,25.77
2023-04-12T16:16:34.622Z,25.77
2023-04-12T16:19:02.691Z,25.72
2023-04-12T16:21:30.856Z,25.75
2023-04-12T16:23:59.521Z,25.73
2023-04-12T16:26:27.603Z,25.73
2023-04-12T16:28:57.272Z,25.72
2023-04-12T16:31:26.408Z,25.71
2023-04-12T16:33:55.869Z,25.70
2023-04-12T16:36:24.528Z,25.68
2023-04-12T16:38:55.080Z,25.69
2023-04-12T16:41:23.399Z,25.69
2023-04-12T16:43:53.705Z,25.70
2023-04-12T16:46:23.538Z,25.73
2023-04-12T16:48:51.534Z,25.75
2023-04-12T16:51:19.728Z,25.79
2023-04-12T16:53:47.712Z,25.80
2023-04-12T16:56:16.865Z,25.81
2023-04-12T16:58:45.469Z,25.83
2023-04-12T17:01:17.049Z,25.86
2023-04-12T17:03:47.861Z,25.89
2023-04-12T17:06:17.169Z,25.91
2023-04-12T17:08:46.219Z,25.93
2023-04-12T17:11:14.182Z,25.96
2023-04-12T17:13:42.280Z,25.96
2023-04-12T17:16:11.044Z,25.97
2023-04-12T17:18:40.235Z,25.95
2023-04-12T17:21:09.589Z,25.97
2023-04-12T17:23:38.774Z,25.95
2023-04-12T17:26:08.333Z,25.98
2023-04-12T17:28:39.223Z,25.96
2023-04-12T17:31:08.813Z,25.97
2023-04-12T17:33:37.649Z,25.96
2023-04-12T17:36:11.343Z,25.94
2023-04-12T17:38:41.087Z,25.96
2023-04-12T17:41:10.293Z,25.84
2023-04-12T17:43:38.583Z,25.95
2023-04-12T17:46:07.247Z,25.94
2023-04-12T17:48:35.809Z,25.94
2023-04-12T17:51:04.258Z,25.80
2023-04-12T17:53:32.343Z,25.85
2023-04-12T17:56:02.109Z,25.91
2023-04-12T17:58:30.233Z,25.92
2023-04-12T18:00:59.490Z,25.89
2023-04-12T18:03:27.940Z,25.83
2023-04-12T18:05:58.678Z,25.88
2023-04-12T18:08:27.166Z,25.87
2023-04-12T18:10:55.187Z,25.77
2023-04-12T18:13:24.659Z,25.86
2023-04-12T18:15:52.762Z,25.84
2023-04-12T18:18:20.852Z,25.84
2023-04-12T18:20:48.876Z,25.84
2023-04-12T18:23:16.876Z,25.83
2023-04-12T18:25:45.400Z,25.81
2023-04-12T18:28:13.730Z,25.77
2023-04-12T18:30:43.043Z,25.73
2023-04-12T18:33:11.351Z,25.74
2023-04-12T18:35:40.233Z,25.71
2023-04-12T18:38:08.141Z,25.70
2023-04-12T18:40:38.733Z,25.67
2023-04-12T18:43:07.942Z,25.52
2023-04-12T18:45:39.635Z,25.54
2023-04-12T18:48:09.944Z,25.46
2023-04-12T18:50:39.245Z,25.38
2023-04-12T18:53:07.709Z,25.22
2023-04-12T18:55:35.926Z,25.27
2023-04-12T18:58:03.870Z,25.21
2023-04-12T19:00:32.808Z,25.16
2023-04-12T19:03:00.980Z,25.10
2023-04-12T19:05:30.566Z,25.06
2023-04-12T19:07:58.526Z,24.78
2023-04-12T19:10:30.456Z,24.98
2023-04-12T19:12:58.519Z,24.92
2023-04-12T19:15:27.161Z,24.92
2023-04-12T19:17:55.308Z,24.85
2023-04-12T19:20:23.234Z,24.88
2023-04-12T19:22:53.073Z,24.90
2023-04-12T19:25:21.293Z,24.89
2023-04-12T19:27:49.424Z,24.89
2023-04-12T19:30:17.926Z,24.86
2023-04-12T19:32:45.917Z,24.88
2023-04-12T19:35:14.062Z,24.88
2023-04-12T19:37:42.093Z,24.87
2023-04-12T19:40:13.746Z,24.86
2023-04-12T19:42:42.273Z,24.85
2023-04-12T19:45:10.773Z,24.85
2023-04-12T19:47:44.520Z,24.85
2023-04-12T19:50:13.259Z,24.83
2023-04-12T19:52:42.597Z,24.83
2023-04-12T19:55:12.549Z,24.74
2023-04-12T19:57:41.708Z,24.82
2023-04-12T20:00:19.386Z,24.84
2023-04-12T20:02:47.953Z,24.86
2023-04-12T20:05:16.873Z,24.85
2023-04-12T20:07:45.277Z,24.92
2023-04-12T20:10:15.716Z,25.00
2023-04-12T20:12:44.346Z,25.07
2023-04-12T20:15:13.064Z,25.18
2023-04-12T20:17:42.036Z,25.18
2023-04-12T20:20:12.736Z,25.32
2023-04-12T20:22:42.710Z,25.38
2023-04-12T20:25:11.212Z,25.38
2023-04-12T20:27:41.238Z,25.48
2023-04-12T20:30:11.370Z,25.52
2023-04-12T20:32:39.492Z,25.40
2023-04-12T20:35:08.956Z,25.60
2023-04-12T20:37:37.579Z,25.46
2023-04-12T20:40:09.339Z,25.66
2023-04-12T20:42:37.345Z,25.69
2023-04-12T20:45:07.699Z,25.71
2023-04-12T20:47:35.741Z,25.72
2023-04-12T20:50:03.809Z,25.73
2023-04-12T20:52:31.822Z,25.75
2023-04-12T20:54:59.767Z,25.74
2023-04-12T20:57:28.555Z,25.74
2023-04-12T20:59:56.575Z,25.26
2023-04-12T21:02:26.085Z,25.74
2023-04-12T21:04:54.426Z,25.73
2023-04-12T21:07:25.947Z,25.73
2023-04-12T21:09:54.001Z,25.77
2023-04-12T21:12:21.976Z,25.78
2023-04-12T21:14:50.926Z,25.68
2023-04-12T21:17:24.576Z,25.83
2023-04-12T21:19:54.110Z,25.87
2023-04-12T21:22:22.104Z,25.88
2023-04-12T21:24:50.197Z,25.91
2023-04-12T21:27:18.130Z,25.93
2023-04-12T21:29:47.252Z,25.93
2023-04-12T21:32:15.210Z,25.95
2023-04-12T21:34:43.100Z,25.92
2023-04-12T21:37:12.600Z,26.01
2023-04-12T21:39:43.412Z,25.53
2023-04-12T21:42:11.413Z,26.03
2023-04-12T21:44:42.311Z,26.04
2023-04-12T21:47:10.428Z,26.05
2023-04-12T21:49:38.339Z,25.80
2023-04-12T21:52:06.545Z,26.08
2023-04-12T21:54:37.032Z,26.09
2023-04-12T21:57:06.241Z,26.10
2023-04-12T21:59:34.241Z,26.12
2023-04-12T22:02:02.293Z,26.10
2023-04-12T22:04:30.308Z,26.13
2023-04-12T22:06:58.272Z,26.13
2023-04-12T22:09:27.109Z,26.14
2023-04-12T22:11:56.844Z,26.14
2023-04-12T22:14:24.891Z,26.15
2023-04-12T22:16:53.310Z,26.16
2023-04-12T22:19:21.296Z,26.17
2023-04-12T22:21:49.238Z,26.17
2023-04-12T22:24:17.319Z,26.17
2023-04-12T22:26:45.311Z,26.18
2023-04-12T22:29:17.727Z,26.19
2023-04-12T22:31:47.053Z,26.18
2023-04-12T22:34:15.277Z,26.21
2023-04-12T22:36:45.003Z,26.22
2023-04-12T22:39:15.529Z,26.23
2023-04-12T22:41:49.050Z,26.23
2023-04-12T22:44:18.833Z,26.25
2023-04-12T22:46:48.410Z,26.24
2023-04-12T22:49:16.880Z,26.24
2023-04-12T22:51:45.089Z,26.25
2023-04-12T22:54:13.162Z,26.25
2023-04-12T22:56:45.270Z,26.28
2023-04-12T22:59:14.417Z,26.28
2023-04-12T23:01:45.253Z,26.29
2023-04-12T23:04:13.659Z,26.29
2023-04-12T23:06:43.036Z,26.30
2023-04-12T23:09:12.569Z,26.31
2023-04-12T23:11:41.879Z,26.29
2023-04-12T23:14:10.652Z,26.17
2023-04-12T23:16:44.183Z,26.35
2023-04-12T23:19:14.807Z,26.36
2023-04-12T23:21:43.115Z,26.36
2023-04-12T23:24:15.314Z,26.37
2023-04-12T23:26:45.084Z,26.37
2023-04-12T23:29:13.259Z,26.20
2023-04-12T23:31:41.942Z,26.30
2023-04-12T23:34:10.055Z,26.41
2023-04-12T23:36:39.491Z,26.42
2023-04-12T23:39:09.451Z,26.42
2023-04-12T23:41:38.298Z,26.42
2023-04-12T23:44:06.536Z,26.43
2023-04-12T23:46:35.062Z,26.43
2023-04-12T23:49:03.080Z,26.44
2023-04-12T23:51:31.048Z,26.44
2023-04-12T23:54:00.784Z,26.44
2023-04-12T23:56:28.787Z,26.45
2023-04-12T23:58:56.840Z,26.43
